createdAt,value
2022-08-11T00:00:34.677Z,1026.8
2022-08-11T00:01:34.667Z,1026.79
2022-08-11T00:02:34.807Z,1026.78
2022-08-11T00:03:43.718Z,1026.82
2022-08-11T00:04:34.664Z,1026.75
2022-08-11T00:05:34.687Z,1026.8
2022-08-11T00:06:34.672Z,1026.8
2022-08-11T00:07:34.678Z,1026.79
2022-08-11T00:08:34.700Z,1026.83
2022-08-11T00:09:38.890Z,1026.83
2022-08-11T00:10:34.680Z,1026.81
2022-08-11T00:11:34.683Z,1026.84
2022-08-11T00:12:34.664Z,1026.87
2022-08-11T00:13:34.699Z,1026.84
2022-08-11T00:14:37.238Z,1026.86
2022-08-11T00:15:34.671Z,1026.88
2022-08-11T00:16:34.677Z,1026.9
2022-08-11T00:17:34.682Z,1026.9
2022-08-11T00:18:34.710Z,1026.9
2022-08-11T00:20:11.995Z,1026.91
2022-08-11T00:20:34.681Z,1026.87
2022-08-11T00:22:04.752Z,1026.84
2022-08-11T00:22:34.779Z,1026.93
2022-08-11T00:23:34.695Z,1026.93
2022-08-11T00:24:34.673Z,1026.87
2022-08-11T00:25:34.665Z,1026.93
2022-08-11T00:26:34.670Z,1026.92
2022-08-11T00:27:34.686Z,1026.96
2022-08-11T00:28:34.704Z,1026.93
2022-08-11T00:29:34.681Z,1026.92
2022-08-11T00:30:34.678Z,1026.91
2022-08-11T00:31:34.665Z,1026.91
2022-08-11T00:32:34.682Z,1026.95
2022-08-11T00:33:44.352Z,1026.96
2022-08-11T00:34:34.682Z,1026.94
2022-08-11T00:35:52.087Z,1026.98
2022-08-11T00:36:34.673Z,1026.97
2022-08-11T00:37:34.684Z,1027.03
2022-08-11T00:38:34.699Z,1027.02
2022-08-11T00:39:34.775Z,1027.02
2022-08-11T00:40:34.682Z,1027.04
2022-08-11T00:41:34.674Z,1026.98
2022-08-11T00:42:34.676Z,1027
2022-08-11T00:43:34.701Z,1026.92
2022-08-11T00:44:34.676Z,1026.93
2022-08-11T00:45:34.684Z,1026.99
2022-08-11T00:46:34.684Z,1027
2022-08-11T00:47:34.675Z,1027
2022-08-11T00:48:34.699Z,1027.01
2022-08-11T00:49:34.673Z,1026.98
2022-08-11T00:50:34.678Z,1026.93
2022-08-11T00:52:02.218Z,1026.95
2022-08-11T00:52:34.664Z,1026.9
2022-08-11T00:53:34.673Z,1026.95
2022-08-11T00:54:34.668Z,1026.94
2022-08-11T00:55:34.669Z,1026.95
2022-08-11T00:56:34.673Z,1026.99
2022-08-11T00:57:37.506Z,1027.01
2022-08-11T00:58:34.848Z,1027.03
2022-08-11T00:59:35.945Z,1027.05
2022-08-11T01:00:34.717Z,1026.99
2022-08-11T01:01:34.679Z,1026.99
2022-08-11T01:02:34.679Z,1027
2022-08-11T01:03:34.686Z,1027.02
2022-08-11T01:04:34.667Z,1027.03
2022-08-11T01:05:34.683Z,1027.05
2022-08-11T01:06:34.679Z,1027.12
2022-08-11T01:08:01.498Z,1027.07
2022-08-11T01:08:34.691Z,1027.04
2022-08-11T01:09:34.690Z,1027.07
2022-08-11T01:10:34.677Z,1027.02
2022-08-11T01:11:34.679Z,1027.03
2022-08-11T01:12:34.679Z,1027.02
2022-08-11T01:13:34.694Z,1026.96
2022-08-11T01:14:34.868Z,1026.91
2022-08-11T01:15:34.680Z,1026.99
2022-08-11T01:16:34.685Z,1026.98
2022-08-11T01:17:34.680Z,1027
2022-08-11T01:18:34.701Z,1027.01
2022-08-11T01:19:34.665Z,1026.9
2022-08-11T01:20:47.268Z,1026.98
2022-08-11T01:21:34.673Z,1026.96
2022-08-11T01:22:34.685Z,1026.93
2022-08-11T01:23:34.696Z,1026.97
2022-08-11T01:24:34.694Z,1026.97
2022-08-11T01:25:34.684Z,1026.95
2022-08-11T01:26:34.678Z,1026.94
2022-08-11T01:30:34.693Z,1026.92
2022-08-11T01:31:34.685Z,1026.95
2022-08-11T01:32:34.668Z,1026.96
2022-08-11T01:33:34.686Z,1026.94
2022-08-11T01:34:34.684Z,1026.96
2022-08-11T01:35:34.671Z,1026.91
2022-08-11T01:36:34.813Z,1026.96
2022-08-11T01:37:34.684Z,1026.95
2022-08-11T01:38:34.673Z,1026.96
2022-08-11T01:39:34.717Z,1026.97
2022-08-11T01:40:34.670Z,1027.04
2022-08-11T01:41:34.673Z,1027.04
2022-08-11T01:42:34.674Z,1027.02
2022-08-11T01:43:34.685Z,1027
2022-08-11T01:44:34.681Z,1026.96
2022-08-11T01:45:34.679Z,1026.98
2022-08-11T01:46:34.670Z,1026.95
2022-08-11T01:47:34.671Z,1026.99
2022-08-11T01:48:34.686Z,1026.85
2022-08-11T01:50:07.107Z,1026.95
2022-08-11T01:50:34.682Z,1026.99
2022-08-11T01:51:34.676Z,1026.99
2022-08-11T01:52:35.258Z,1027.01
2022-08-11T01:53:34.677Z,1027
2022-08-11T01:54:34.708Z,1026.98
2022-08-11T01:55:34.664Z,1026.99
2022-08-11T01:56:34.661Z,1027
2022-08-11T01:57:34.659Z,1027.03
2022-08-11T01:58:44.110Z,1027.03
2022-08-11T01:59:34.683Z,1026.98
2022-08-11T02:00:34.743Z,1026.99
2022-08-11T02:01:34.666Z,1026.92
2022-08-11T02:02:34.665Z,1026.96
2022-08-11T02:03:34.680Z,1026.97
2022-08-11T02:04:34.680Z,1026.99
2022-08-11T02:05:34.665Z,1026.98
2022-08-11T02:06:34.673Z,1027.01
2022-08-11T02:07:34.673Z,1027
2022-08-11T02:08:34.665Z,1027.02
2022-08-11T02:09:34.690Z,1026.99
2022-08-11T02:10:36.533Z,1026.99
2022-08-11T02:11:35.449Z,1027.01
2022-08-11T02:12:34.748Z,1026.98
2022-08-11T02:13:36.667Z,1026.96
2022-08-11T02:14:34.693Z,1027.01
2022-08-11T02:15:34.664Z,1026.97
2022-08-11T02:16:34.676Z,1026.95
2022-08-11T02:17:34.665Z,1026.93
2022-08-11T02:18:35.039Z,1026.93
2022-08-11T02:19:34.686Z,1026.89
2022-08-11T02:24:06.112Z,1026.94
2022-08-11T02:24:34.687Z,1026.92
2022-08-11T02:25:34.664Z,1026.93
2022-08-11T02:26:34.670Z,1026.93
2022-08-11T02:27:34.681Z,1026.93
2022-08-11T02:28:38.392Z,1026.96
2022-08-11T02:29:34.679Z,1026.96
2022-08-11T02:30:34.658Z,1026.96
2022-08-11T02:32:14.548Z,1026.92
2022-08-11T02:32:34.755Z,1026.93
2022-08-11T02:33:36.425Z,1026.94
2022-08-11T02:34:34.691Z,1026.9
2022-08-11T02:35:34.678Z,1026.94
2022-08-11T02:36:34.681Z,1026.91
2022-08-11T02:37:34.679Z,1026.94
2022-08-11T02:38:34.681Z,1026.92
2022-08-11T02:39:34.723Z,1026.99
2022-08-11T02:40:34.670Z,1026.99
2022-08-11T02:41:34.670Z,1027
2022-08-11T02:42:42.266Z,1027.02
2022-08-11T02:43:34.675Z,1027.02
2022-08-11T02:44:34.702Z,1027.05
2022-08-11T02:45:34.663Z,1027.04
2022-08-11T02:46:34.684Z,1027.04
2022-08-11T02:47:34.680Z,1027.07
2022-08-11T02:48:34.686Z,1027.08
2022-08-11T02:49:34.682Z,1027.08
2022-08-11T02:50:34.677Z,1027.1
2022-08-11T02:51:34.662Z,1027.08
2022-08-11T02:52:34.667Z,1027.06
2022-08-11T02:53:34.665Z,1027.05
2022-08-11T02:54:34.693Z,1027.08
2022-08-11T02:55:47.985Z,1027.05
2022-08-11T02:56:34.661Z,1027.04
2022-08-11T02:57:34.665Z,1027.02
2022-08-11T02:58:34.667Z,1027.09
2022-08-11T02:59:34.686Z,1027.06
2022-08-11T03:00:34.666Z,1027.12
2022-08-11T03:01:34.683Z,1027.08
2022-08-11T03:02:34.694Z,1027.08
2022-08-11T03:03:34.682Z,1027.06
2022-08-11T03:04:37.607Z,1027.05
2022-08-11T03:05:34.657Z,1027.07
2022-08-11T03:06:34.664Z,1027.05
2022-08-11T03:07:34.675Z,1027.12
2022-08-11T03:08:34.670Z,1027.13
2022-08-11T03:09:34.681Z,1027.13
2022-08-11T03:10:34.669Z,1027.18
2022-08-11T03:11:34.672Z,1027.11
2022-08-11T03:12:34.667Z,1027.08
2022-08-11T03:13:34.668Z,1027.05
2022-08-11T03:14:34.691Z,1027.08
2022-08-11T03:15:34.669Z,1027.06
2022-08-11T03:16:34.670Z,1027.01
2022-08-11T03:17:34.668Z,1026.95
2022-08-11T03:18:34.703Z,1026.94
2022-08-11T03:19:34.680Z,1026.99
2022-08-11T03:20:37.932Z,1027
2022-08-11T03:22:01.739Z,1027.04
2022-08-11T03:22:34.670Z,1027.04
2022-08-11T03:23:34.670Z,1027
2022-08-11T03:24:34.691Z,1026.99
2022-08-11T03:25:34.674Z,1027.01
2022-08-11T03:26:34.663Z,1027.02
2022-08-11T03:27:34.671Z,1027.05
2022-08-11T03:28:34.671Z,1027.05
2022-08-11T03:29:34.679Z,1027.1
2022-08-11T03:30:34.656Z,1027.08
2022-08-11T03:31:34.675Z,1027.11
2022-08-11T03:32:34.673Z,1027.09
2022-08-11T03:33:34.679Z,1027.12
2022-08-11T03:34:34.673Z,1027.11
2022-08-11T03:35:34.671Z,1027.08
2022-08-11T03:36:55.761Z,1027.07
2022-08-11T03:37:34.661Z,1027.13
2022-08-11T03:38:34.660Z,1027.12
2022-08-11T03:39:34.742Z,1027.13
2022-08-11T03:40:34.659Z,1027.13
2022-08-11T03:42:03.903Z,1027.13
2022-08-11T03:42:34.661Z,1027.14
2022-08-11T03:43:34.789Z,1027.15
2022-08-11T03:44:34.691Z,1027.15
2022-08-11T03:45:40.333Z,1027.13
2022-08-11T03:46:34.680Z,1027.13
2022-08-11T03:47:34.674Z,1027.19
2022-08-11T03:48:34.685Z,1027.19
2022-08-11T03:49:34.675Z,1027.17
2022-08-11T03:50:34.673Z,1027.15
2022-08-11T03:51:44.665Z,1027.15
2022-08-11T03:52:34.663Z,1027.18
2022-08-11T03:53:34.685Z,1027.15
2022-08-11T03:54:34.687Z,1027.08
2022-08-11T03:55:34.676Z,1027.13
2022-08-11T03:56:34.676Z,1027.08
2022-08-11T03:57:34.672Z,1027.06
2022-08-11T03:58:39.528Z,1027.06
2022-08-11T03:59:34.681Z,1027.08
2022-08-11T04:00:34.674Z,1027.11
2022-08-11T04:01:34.736Z,1027.1
2022-08-11T04:02:34.666Z,1027.03
2022-08-11T04:03:34.687Z,1027.08
2022-08-11T04:04:34.681Z,1027.05
2022-08-11T04:05:34.661Z,1027.07
2022-08-11T04:06:34.662Z,1027.03
2022-08-11T04:07:34.658Z,1027.03
2022-08-11T04:08:34.729Z,1027.02
2022-08-11T04:09:34.679Z,1027.02
2022-08-11T04:10:34.656Z,1027.04
2022-08-11T04:11:34.672Z,1027.03
2022-08-11T04:12:35.781Z,1027.07
2022-08-11T04:13:34.666Z,1027.1
2022-08-11T04:14:34.671Z,1027.07
2022-08-11T04:15:34.662Z,1027.07
2022-08-11T04:16:34.661Z,1027.04
2022-08-11T04:17:34.661Z,1027.08
2022-08-11T04:18:34.679Z,1027.03
2022-08-11T04:19:34.674Z,1027.03
2022-08-11T04:20:34.658Z,1027.04
2022-08-11T04:21:34.693Z,1027.04
2022-08-11T04:22:34.675Z,1027.04
2022-08-11T04:24:13.262Z,1027.01
2022-08-11T04:24:39.276Z,1027.06
2022-08-11T04:25:34.659Z,1027.02
2022-08-11T04:26:34.658Z,1026.98
2022-08-11T04:27:37.208Z,1027.02
2022-08-11T04:28:34.669Z,1027.01
2022-08-11T04:29:36.358Z,1027.01
2022-08-11T04:30:34.676Z,1026.99
2022-08-11T04:31:51.801Z,1026.93
2022-08-11T04:32:34.664Z,1026.88
2022-08-11T04:33:35.078Z,1026.9
2022-08-11T04:34:34.684Z,1026.92
2022-08-11T04:35:34.658Z,1026.89
2022-08-11T04:36:34.684Z,1026.93
2022-08-11T04:37:34.936Z,1026.94
2022-08-11T04:38:34.668Z,1026.93
2022-08-11T04:39:34.778Z,1026.95
2022-08-11T04:40:34.663Z,1026.94
2022-08-11T04:41:34.672Z,1026.99
2022-08-11T04:42:34.818Z,1027.02
2022-08-11T04:43:34.668Z,1027.02
2022-08-11T04:44:34.679Z,1027.05
2022-08-11T04:45:34.681Z,1027.07
2022-08-11T04:46:34.672Z,1027.03
2022-08-11T04:47:59.721Z,1027.05
2022-08-11T04:48:34.678Z,1027.07
2022-08-11T04:49:34.675Z,1027.03
2022-08-11T04:50:34.658Z,1027.05
2022-08-11T04:51:34.673Z,1027.04
2022-08-11T04:52:37.450Z,1027.05
2022-08-11T04:53:34.670Z,1026.99
2022-08-11T04:54:34.683Z,1026.97
2022-08-11T04:55:37.170Z,1026.96
2022-08-11T04:56:34.661Z,1026.96
2022-08-11T04:57:34.672Z,1026.97
2022-08-11T04:58:34.668Z,1026.98
2022-08-11T04:59:34.689Z,1026.97
2022-08-11T05:00:34.676Z,1026.99
2022-08-11T05:01:37.396Z,1026.96
2022-08-11T05:02:34.666Z,1026.96
2022-08-11T05:03:34.694Z,1026.93
2022-08-11T05:04:34.690Z,1027.03
2022-08-11T05:05:34.673Z,1027
2022-08-11T05:06:34.667Z,1026.99
2022-08-11T05:07:34.661Z,1026.99
2022-08-11T05:08:34.674Z,1026.97
2022-08-11T05:09:34.671Z,1026.99
2022-08-11T05:10:34.654Z,1027
2022-08-11T05:11:34.664Z,1027
2022-08-11T05:12:34.662Z,1026.94
2022-08-11T05:13:34.675Z,1026.94
2022-08-11T05:14:34.695Z,1026.95
2022-08-11T05:15:42.582Z,1026.94
2022-08-11T05:16:34.664Z,1026.93
2022-08-11T05:17:34.656Z,1026.91
2022-08-11T05:18:34.674Z,1026.88
2022-08-11T05:19:34.662Z,1026.91
2022-08-11T05:20:34.663Z,1026.91
2022-08-11T05:21:44.961Z,1026.92
2022-08-11T05:22:34.680Z,1026.89
2022-08-11T05:23:34.670Z,1026.87
2022-08-11T05:24:34.665Z,1026.86
2022-08-11T05:26:45.486Z,1026.79
2022-08-11T05:26:46.285Z,1026.79
2022-08-11T05:27:34.669Z,1026.78
2022-08-11T05:28:34.663Z,1026.77
2022-08-11T05:29:34.671Z,1026.82
2022-08-11T05:30:34.769Z,1026.85
2022-08-11T05:31:34.668Z,1026.9
2022-08-11T05:32:34.668Z,1026.9
2022-08-11T05:33:34.687Z,1026.87
2022-08-11T05:34:34.681Z,1026.84
2022-08-11T05:36:00.920Z,1026.82
2022-08-11T05:36:34.669Z,1026.82
2022-08-11T05:37:34.671Z,1026.82
2022-08-11T05:38:34.671Z,1026.81
2022-08-11T05:39:36.822Z,1026.83
2022-08-11T05:40:34.656Z,1026.82
2022-08-11T05:41:34.664Z,1026.76
2022-08-11T05:42:34.663Z,1026.8
2022-08-11T05:43:34.669Z,1026.86
2022-08-11T05:44:34.696Z,1026.82
2022-08-11T05:46:03.026Z,1026.83
2022-08-11T05:46:34.665Z,1026.77
2022-08-11T05:47:34.669Z,1026.81
2022-08-11T05:48:34.690Z,1026.77
2022-08-11T05:49:34.695Z,1026.78
2022-08-11T05:50:34.672Z,1026.82
2022-08-11T05:51:34.660Z,1026.87
2022-08-11T05:52:34.710Z,1026.85
2022-08-11T05:53:45.759Z,1026.85
2022-08-11T05:54:34.707Z,1026.75
2022-08-11T05:55:34.681Z,1026.78
2022-08-11T05:56:34.684Z,1026.8
2022-08-11T05:57:45.508Z,1026.83
2022-08-11T05:58:39.536Z,1026.8
2022-08-11T05:59:34.684Z,1026.8
2022-08-11T06:00:34.664Z,1026.8
2022-08-11T06:01:34.717Z,1026.78
2022-08-11T06:02:34.663Z,1026.79
2022-08-11T06:03:34.678Z,1026.78
2022-08-11T06:04:34.683Z,1026.79
2022-08-11T06:05:34.770Z,1026.74
2022-08-11T06:06:34.662Z,1026.74
2022-08-11T06:07:48.949Z,1026.73
2022-08-11T06:08:34.655Z,1026.75
2022-08-11T06:09:34.680Z,1026.68
2022-08-11T06:10:34.658Z,1026.67
2022-08-11T06:11:43.809Z,1026.67
2022-08-11T06:12:34.671Z,1026.68
2022-08-11T06:13:34.669Z,1026.68
2022-08-11T06:14:34.848Z,1026.73
2022-08-11T06:15:34.659Z,1026.71
2022-08-11T06:16:34.664Z,1026.7
2022-08-11T06:17:38.412Z,1026.65
2022-08-11T06:18:34.692Z,1026.65
2022-08-11T06:19:34.674Z,1026.63
2022-08-11T06:20:34.677Z,1026.56
2022-08-11T06:21:34.666Z,1026.62
2022-08-11T06:22:34.678Z,1026.6
2022-08-11T06:23:36.189Z,1026.58
2022-08-11T06:24:34.696Z,1026.57
2022-08-11T06:25:34.672Z,1026.62
2022-08-11T06:26:44.776Z,1026.62
2022-08-11T06:27:34.673Z,1026.63
2022-08-11T06:28:34.668Z,1026.58
2022-08-11T06:29:38.031Z,1026.55
2022-08-11T06:30:34.662Z,1026.52
2022-08-11T06:31:34.678Z,1026.53
2022-08-11T06:32:34.670Z,1026.52
2022-08-11T06:33:34.690Z,1026.48
2022-08-11T06:34:34.687Z,1026.45
2022-08-11T06:35:34.670Z,1026.46
2022-08-11T06:36:34.679Z,1026.46
2022-08-11T06:37:36.748Z,1026.47
2022-08-11T06:38:34.674Z,1026.45
2022-08-11T06:39:34.786Z,1026.44
2022-08-11T06:40:34.667Z,1026.37
2022-08-11T06:41:34.673Z,1026.38
2022-08-11T06:42:34.668Z,1026.37
2022-08-11T06:43:34.684Z,1026.41
2022-08-11T06:44:34.679Z,1026.42
2022-08-11T06:45:34.660Z,1026.42
2022-08-11T06:46:34.672Z,1026.37
2022-08-11T06:47:34.670Z,1026.4
2022-08-11T06:48:34.704Z,1026.36
2022-08-11T06:49:34.685Z,1026.32
2022-08-11T06:50:34.668Z,1026.31
2022-08-11T06:51:34.679Z,1026.28
2022-08-11T06:52:36.248Z,1026.26
2022-08-11T06:53:34.717Z,1026.26
2022-08-11T06:54:34.697Z,1026.29
2022-08-11T06:55:56.816Z,1026.21
2022-08-11T06:56:34.674Z,1026.25
2022-08-11T06:57:34.671Z,1026.24
2022-08-11T06:58:34.669Z,1026.2
2022-08-11T06:59:34.683Z,1026.19
2022-08-11T07:00:34.661Z,1026.16
2022-08-11T07:01:34.802Z,1026.18
2022-08-11T07:02:35.033Z,1026.15
2022-08-11T07:03:34.696Z,1026.19
2022-08-11T07:04:34.719Z,1026.15
2022-08-11T07:05:34.684Z,1026.13
2022-08-11T07:06:41.673Z,1026.18
2022-08-11T07:07:34.693Z,1026.13
2022-08-11T07:08:35.732Z,1026.16
2022-08-11T07:09:34.688Z,1026.2
2022-08-11T07:10:34.671Z,1026.19
2022-08-11T07:11:34.665Z,1026.17
2022-08-11T07:12:34.659Z,1026.15
2022-08-11T07:13:44.678Z,1026.1
2022-08-11T07:14:38.293Z,1026.11
2022-08-11T07:16:11.644Z,1026.07
2022-08-11T07:16:34.708Z,1026.06
2022-08-11T07:17:34.657Z,1026.09
2022-08-11T07:18:34.672Z,1026.11
2022-08-11T07:19:34.692Z,1026.1
2022-08-11T07:20:34.684Z,1026.1
2022-08-11T07:22:01.477Z,1026.07
2022-08-11T07:22:34.670Z,1026.08
2022-08-11T07:23:34.676Z,1026.06
2022-08-11T07:25:01.881Z,1026.04
2022-08-11T07:25:34.693Z,1026.04
2022-08-11T07:26:34.677Z,1025.99
2022-08-11T07:27:37.336Z,1025.97
2022-08-11T07:28:34.668Z,1025.98
2022-08-11T07:29:34.696Z,1025.91
2022-08-11T07:30:34.661Z,1025.9
2022-08-11T07:31:34.713Z,1025.86
2022-08-11T07:32:34.694Z,1025.86
2022-08-11T07:34:05.768Z,1025.8
2022-08-11T07:34:34.701Z,1025.84
2022-08-11T07:35:34.683Z,1025.87
2022-08-11T07:36:34.679Z,1025.87
2022-08-11T07:37:34.687Z,1025.81
2022-08-11T07:38:34.669Z,1025.87
2022-08-11T07:39:34.797Z,1025.87
2022-08-11T07:40:34.697Z,1025.82
2022-08-11T07:41:34.668Z,1025.79
2022-08-11T07:42:34.676Z,1025.77
2022-08-11T07:43:34.698Z,1025.75
2022-08-11T07:44:35.506Z,1025.73
2022-08-11T07:45:34.683Z,1025.72
2022-08-11T07:46:34.679Z,1025.74
2022-08-11T07:47:34.676Z,1025.69
2022-08-11T07:48:34.692Z,1025.67
2022-08-11T07:49:34.696Z,1025.65
2022-08-11T07:50:34.683Z,1025.67
2022-08-11T07:51:34.660Z,1025.67
2022-08-11T07:52:34.767Z,1025.71
2022-08-11T07:53:34.670Z,1025.71
2022-08-11T07:54:34.671Z,1025.65
2022-08-11T07:55:51.058Z,1025.67
2022-08-11T07:56:48.754Z,1025.66
2022-08-11T07:57:56.265Z,1025.6
2022-08-11T07:58:44.874Z,1025.61
2022-08-11T07:59:57.585Z,1025.57
2022-08-11T08:00:34.689Z,1025.61
2022-08-11T08:01:34.682Z,1025.61
2022-08-11T08:02:34.680Z,1025.59
2022-08-11T08:03:34.677Z,1025.59
2022-08-11T08:04:34.708Z,1025.58
2022-08-11T08:05:34.664Z,1025.61
2022-08-11T08:06:36.247Z,1025.6
2022-08-11T08:07:34.673Z,1025.64
2022-08-11T08:08:34.675Z,1025.63
2022-08-11T08:14:34.690Z,1025.64
2022-08-11T08:15:34.680Z,1025.64
2022-08-11T08:16:34.673Z,1025.63
2022-08-11T08:17:34.668Z,1025.6
2022-08-11T08:18:34.693Z,1025.56
2022-08-11T08:19:34.693Z,1025.55
2022-08-11T08:20:34.687Z,1025.52
2022-08-11T08:21:34.678Z,1025.51
2022-08-11T08:22:38.634Z,1025.51
2022-08-11T08:23:34.725Z,1025.52
2022-08-11T08:24:34.710Z,1025.48
2022-08-11T08:25:34.672Z,1025.53
2022-08-11T08:26:34.686Z,1025.42
2022-08-11T08:27:34.665Z,1025.44
2022-08-11T08:28:34.664Z,1025.41
2022-08-11T08:29:34.690Z,1025.35
2022-08-11T08:30:34.669Z,1025.36
2022-08-11T08:31:34.676Z,1025.33
2022-08-11T08:32:34.696Z,1025.37
2022-08-11T08:33:34.705Z,1025.38
2022-08-11T08:34:34.688Z,1025.38
2022-08-11T08:35:34.685Z,1025.33
2022-08-11T08:36:34.679Z,1025.32
2022-08-11T08:37:46.198Z,1025.27
2022-08-11T08:38:34.674Z,1025.31
2022-08-11T08:39:34.760Z,1025.24
2022-08-11T08:40:34.678Z,1025.23
2022-08-11T08:41:34.672Z,1025.21
2022-08-11T08:42:34.683Z,1025.23
2022-08-11T08:43:47.605Z,1025.21
2022-08-11T08:44:39.181Z,1025.25
2022-08-11T08:45:34.814Z,1025.22
2022-08-11T08:46:34.679Z,1025.18
2022-08-11T08:47:42.058Z,1025.14
2022-08-11T08:48:34.678Z,1025.11
2022-08-11T08:49:34.678Z,1025.15
2022-08-11T08:50:34.680Z,1025.12
2022-08-11T08:52:02.559Z,1025.18
2022-08-11T08:52:37.287Z,1025.09
2022-08-11T08:53:34.679Z,1025.1
2022-08-11T08:54:34.721Z,1025.06
2022-08-11T08:55:34.684Z,1025.06
2022-08-11T08:56:34.682Z,1025.05
2022-08-11T08:57:39.246Z,1024.98
2022-08-11T08:58:34.668Z,1024.93
2022-08-11T08:59:47.368Z,1024.96
2022-08-11T09:00:34.671Z,1024.99
2022-08-11T09:01:34.763Z,1024.93
2022-08-11T09:02:35.176Z,1024.89
2022-08-11T09:04:02.843Z,1024.9
2022-08-11T09:04:34.690Z,1024.88
2022-08-11T09:05:34.689Z,1024.91
2022-08-11T09:06:34.682Z,1024.88
2022-08-11T09:07:38.715Z,1024.9
2022-08-11T09:08:34.679Z,1024.9
2022-08-11T09:09:34.692Z,1024.89
2022-08-11T09:10:34.666Z,1024.89
2022-08-11T09:11:34.705Z,1024.9
2022-08-11T09:12:45.892Z,1024.9
2022-08-11T09:13:34.668Z,1024.87
2022-08-11T09:14:34.680Z,1024.85
2022-08-11T09:15:34.663Z,1024.84
2022-08-11T09:16:34.668Z,1024.81
2022-08-11T09:17:34.665Z,1024.79
2022-08-11T09:18:34.686Z,1024.82
2022-08-11T09:19:34.679Z,1024.8
2022-08-11T09:20:34.669Z,1024.82
2022-08-11T09:21:48.633Z,1024.79
2022-08-11T09:22:34.668Z,1024.78
2022-08-11T09:24:07.408Z,1024.77
2022-08-11T09:24:34.694Z,1024.8
2022-08-11T09:25:34.671Z,1024.75
2022-08-11T09:26:34.673Z,1024.78
2022-08-11T09:27:34.670Z,1024.78
2022-08-11T09:28:34.678Z,1024.75
2022-08-11T09:29:34.706Z,1024.72
2022-08-11T09:30:34.681Z,1024.71
2022-08-11T09:31:38.930Z,1024.65
2022-08-11T09:32:34.720Z,1024.64
2022-08-11T09:33:34.700Z,1024.62
2022-08-11T09:34:34.692Z,1024.66
2022-08-11T09:35:34.679Z,1024.66
2022-08-11T09:36:34.685Z,1024.66
2022-08-11T09:37:54.308Z,1024.64
2022-08-11T09:38:34.679Z,1024.64
2022-08-11T09:39:34.704Z,1024.69
2022-08-11T09:40:34.669Z,1024.62
2022-08-11T09:42:00.545Z,1024.58
2022-08-11T09:42:34.678Z,1024.64
2022-08-11T09:43:34.703Z,1024.58
2022-08-11T09:44:34.685Z,1024.58
2022-08-11T09:45:40.055Z,1024.57
2022-08-11T09:46:34.690Z,1024.56
2022-08-11T09:47:34.760Z,1024.56
2022-08-11T09:48:34.684Z,1024.54
2022-08-11T09:49:34.690Z,1024.55
2022-08-11T09:50:34.667Z,1024.47
2022-08-11T09:51:34.673Z,1024.45
2022-08-11T09:52:34.676Z,1024.43
2022-08-11T09:53:40.955Z,1024.42
2022-08-11T09:54:34.698Z,1024.37
2022-08-11T09:55:34.682Z,1024.35
2022-08-11T09:56:34.680Z,1024.4
2022-08-11T09:57:34.678Z,1024.37
2022-08-11T09:58:42.501Z,1024.37
2022-08-11T09:59:34.690Z,1024.32
2022-08-11T10:00:34.683Z,1024.32
2022-08-11T10:01:34.761Z,1024.35
2022-08-11T10:02:34.683Z,1024.32
2022-08-11T10:03:38.267Z,1024.37
2022-08-11T10:04:34.702Z,1024.41
2022-08-11T10:05:34.689Z,1024.36
2022-08-11T10:06:34.776Z,1024.35
2022-08-11T10:07:34.672Z,1024.35
2022-08-11T10:08:34.679Z,1024.38
2022-08-11T10:09:34.686Z,1024.36
2022-08-11T10:10:34.688Z,1024.37
2022-08-11T10:11:34.683Z,1024.35
2022-08-11T10:12:34.672Z,1024.36
2022-08-11T10:14:31.040Z,1024.31
2022-08-11T10:14:35.142Z,1024.31
2022-08-11T10:15:34.675Z,1024.35
2022-08-11T10:16:34.672Z,1024.34
2022-08-11T10:17:34.683Z,1024.36
2022-08-11T10:18:34.686Z,1024.39
2022-08-11T10:19:34.684Z,1024.34
2022-08-11T10:20:34.664Z,1024.36
2022-08-11T10:21:34.668Z,1024.34
2022-08-11T10:25:34.710Z,1024.36
2022-08-11T10:26:34.675Z,1024.4
2022-08-11T10:27:34.800Z,1024.39
2022-08-11T10:28:50.035Z,1024.38
2022-08-11T10:29:36.703Z,1024.39
2022-08-11T10:30:34.680Z,1024.38
2022-08-11T10:31:57.730Z,1024.43
2022-08-11T10:32:36.239Z,1024.36
2022-08-11T10:33:37.884Z,1024.4
2022-08-11T10:34:34.669Z,1024.39
2022-08-11T10:35:34.680Z,1024.33
2022-08-11T10:36:34.673Z,1024.31
2022-08-11T10:38:07.464Z,1024.3
2022-08-11T10:38:34.690Z,1024.28
2022-08-11T10:39:34.726Z,1024.25
2022-08-11T10:40:34.690Z,1024.32
2022-08-11T10:41:34.685Z,1024.06
2022-08-11T10:42:54.925Z,1024.29
2022-08-11T10:44:02.891Z,1024.35
2022-08-11T10:44:34.675Z,1024.36
2022-08-11T10:45:34.682Z,1024.26
2022-08-11T10:46:34.672Z,1024.26
2022-08-11T10:47:34.773Z,1024.33
2022-08-11T10:48:34.694Z,1024.29
2022-08-11T10:49:34.672Z,1024.28
2022-08-11T10:50:34.678Z,1024.23
2022-08-11T10:51:50.866Z,1024.24
2022-08-11T10:52:34.669Z,1024.23
2022-08-11T10:53:34.677Z,1024.17
2022-08-11T10:54:34.673Z,1024.17
2022-08-11T10:55:34.682Z,1024.17
2022-08-11T10:56:34.667Z,1024.21
2022-08-11T10:57:34.673Z,1024.15
2022-08-11T10:58:34.675Z,1024.08
2022-08-11T10:59:34.680Z,1024.04
2022-08-11T11:00:34.669Z,1024.03
2022-08-11T11:01:34.754Z,1024.01
2022-08-11T11:02:34.666Z,1024.07
2022-08-11T11:03:34.694Z,1024.09
2022-08-11T11:04:34.663Z,1024.05
2022-08-11T11:05:34.669Z,1024.07
2022-08-11T11:06:34.662Z,1024.04
2022-08-11T11:10:34.683Z,1024
2022-08-11T11:11:34.678Z,1024.03
2022-08-11T11:12:34.666Z,1023.99
2022-08-11T11:13:34.670Z,1023.99
2022-08-11T11:14:34.883Z,1023.97
2022-08-11T11:15:34.678Z,1023.98
2022-08-11T11:16:34.676Z,1023.97
2022-08-11T11:17:34.679Z,1023.95
2022-08-11T11:18:34.690Z,1023.92
2022-08-11T11:19:34.664Z,1023.9
2022-08-11T11:20:37.921Z,1023.85
2022-08-11T11:21:34.662Z,1023.84
2022-08-11T11:22:34.671Z,1023.84
2022-08-11T11:23:34.665Z,1023.87
2022-08-11T11:24:34.667Z,1023.84
2022-08-11T11:25:34.669Z,1023.86
2022-08-11T11:26:34.651Z,1023.78
2022-08-11T11:27:34.652Z,1023.76
2022-08-11T11:28:34.652Z,1023.76
2022-08-11T11:29:34.646Z,1023.83
2022-08-11T11:30:34.642Z,1023.79
2022-08-11T11:31:34.624Z,1023.82
2022-08-11T11:32:34.640Z,1023.83
2022-08-11T11:33:34.651Z,1023.79
2022-08-11T11:34:34.623Z,1023.79
2022-08-11T11:35:34.647Z,1023.71
2022-08-11T11:36:34.636Z,1023.81
2022-08-11T11:37:34.624Z,1023.79
2022-08-11T11:38:34.623Z,1023.75
2022-08-11T11:39:34.675Z,1023.75
2022-08-11T11:40:34.644Z,1023.68
2022-08-11T11:41:34.611Z,1023.7
2022-08-11T11:42:34.619Z,1023.65
2022-08-11T11:43:34.624Z,1023.61
2022-08-11T11:44:34.623Z,1023.63
2022-08-11T11:45:34.638Z,1023.68
2022-08-11T11:46:38.775Z,1023.63
2022-08-11T11:47:34.612Z,1023.67
2022-08-11T11:48:34.617Z,1023.72
2022-08-11T11:49:34.611Z,1023.61
2022-08-11T11:50:34.618Z,1023.65
2022-08-11T11:51:34.603Z,1023.63
2022-08-11T11:52:34.598Z,1023.62
2022-08-11T11:53:34.599Z,1023.63
2022-08-11T11:54:34.597Z,1023.65
2022-08-11T11:55:34.620Z,1023.66
2022-08-11T11:56:34.601Z,1023.68
2022-08-11T11:57:34.603Z,1023.66
2022-08-11T11:58:34.614Z,1023.63
2022-08-11T11:59:34.619Z,1023.6
2022-08-11T12:00:34.665Z,1023.6
2022-08-11T12:01:34.638Z,1023.63
2022-08-11T12:02:34.666Z,1023.54
2022-08-11T12:03:34.680Z,1023.64
2022-08-11T12:04:34.654Z,1023.61
2022-08-11T12:05:34.684Z,1023.55
2022-08-11T12:06:34.648Z,1023.44
2022-08-11T12:07:34.737Z,1023.44
2022-08-11T12:08:34.664Z,1023.35
2022-08-11T12:09:34.655Z,1023.25
2022-08-11T12:10:34.681Z,1023.31
2022-08-11T12:11:34.674Z,1023.26
2022-08-11T12:12:34.659Z,1023.3
2022-08-11T12:13:34.671Z,1023.33
2022-08-11T12:14:34.676Z,1023.37
2022-08-11T12:16:06.503Z,1023.32
2022-08-11T12:16:36.613Z,1023.33
2022-08-11T12:17:34.673Z,1023.33
2022-08-11T12:18:34.698Z,1023.25
2022-08-11T12:19:35.662Z,1023.29
2022-08-11T12:20:34.784Z,1023.33
2022-08-11T12:21:34.676Z,1023.22
2022-08-11T12:22:34.682Z,1023.22
2022-08-11T12:23:34.672Z,1023.2
2022-08-11T12:24:34.678Z,1023.25
2022-08-11T12:25:34.683Z,1023.28